El Caena — EA5709 — position and weather

sailwx.info

Track history (hours):
 
Tides and Currents Weather Stations Pressure Air Temp Water Temp Dewpoint Dewpoint Depression Visibility Wind Speed Wind Dir Waves Ship Positions

El Caena

Last reported at 2018-Jul-06 04:40 UTC. Time now 2018-Jul-15 20:53 UTC.
Position N 37°32' W 001°00'.
Warning: this ship's position is 9 days out of date.

Length 17 m.

Type: Fishing. MMSI: 224333460.

Date/timePositionNaut miles runAvg speedWind from/ knotsBaromVisibWave heightAir tempDewpointWater temp
2018-Jul-06 04:40N 37°32' W 001°00'2 9.7
2018-Jul-06 04:26N 37°32' W 000°57'4 9.5
2018-Jul-06 04:00N 37°32' W 000°52'5 9.6
2018-Jul-06 03:30N 37°32' W 000°46'2 3.3
2018-Jul-06 03:00N 37°32' W 000°44'5 9.0
2018-Jul-06 02:30N 37°34' W 000°39'5 9.5
2018-Jul-06 02:00N 37°37' W 000°34'1 2.1
2018-Jul-06 01:26N 37°37' W 000°36'1 1.9
2018-Jul-06 01:00N 37°37' W 000°35'21 0.5
2018-Jul-04 05:14N 37°32' W 001°00'2 9.6
2018-Jul-04 04:59N 37°32' W 000°57'3 1.7
2018-Jul-04 03:22N 37°32' W 000°54'1 1.0
2018-Jul-04 02:21N 37°32' W 000°55'0 0.2
2018-Jul-04 02:00N 37°32' W 000°55'0 0.1
2018-Jul-04 01:29N 37°32' W 000°55'4 0.2
2018-Jul-03 05:29N 37°32' W 000°60'5 9.3
2018-Jul-03 04:56N 37°32' W 000°54'2 2.4
2018-Jul-03 03:58N 37°32' W 000°51'1 1.8
2018-Jul-03 03:27N 37°33' W 000°52'1 0.9
2018-Jul-03 02:33N 37°32' W 000°52'0 3.0
2018-Jul-03 02:30N 37°32' W 000°52'  
Track history (hours):
 
Tides and Currents Weather Stations Pressure Air Temp Water Temp Dewpoint Dewpoint Depression Visibility Wind Speed Wind Dir Waves Ship Positions

El Caena

Last reported at 2018-Jul-06 04:40 UTC. Time now 2018-Jul-15 20:53 UTC.
Position N 37°32' W 001°00'.
Warning: this ship's position is 9 days out of date.

Length 17 m.

Type: Fishing. MMSI: 224333460.

Date/timePositionNaut miles runAvg speedWind from/ knotsBaromVisibWave heightAir tempDewpointWater temp
2018-Jul-06 04:40N 37°32' W 001°00'2 9.7
2018-Jul-06 04:26N 37°32' W 000°57'4 9.5
2018-Jul-06 04:00N 37°32' W 000°52'5 9.6
2018-Jul-06 03:30N 37°32' W 000°46'2 3.3
2018-Jul-06 03:00N 37°32' W 000°44'5 9.0
2018-Jul-06 02:30N 37°34' W 000°39'5 9.5
2018-Jul-06 02:00N 37°37' W 000°34'1 2.1
2018-Jul-06 01:26N 37°37' W 000°36'1 1.9
2018-Jul-06 01:00N 37°37' W 000°35'21 0.5
2018-Jul-04 05:14N 37°32' W 001°00'2 9.6
2018-Jul-04 04:59N 37°32' W 000°57'3 1.7
2018-Jul-04 03:22N 37°32' W 000°54'1 1.0
2018-Jul-04 02:21N 37°32' W 000°55'0 0.2
2018-Jul-04 02:00N 37°32' W 000°55'0 0.1
2018-Jul-04 01:29N 37°32' W 000°55'4 0.2
2018-Jul-03 05:29N 37°32' W 000°60'5 9.3
2018-Jul-03 04:56N 37°32' W 000°54'2 2.4
2018-Jul-03 03:58N 37°32' W 000°51'1 1.8
2018-Jul-03 03:27N 37°33' W 000°52'1 0.9
2018-Jul-03 02:33N 37°32' W 000°52'0 3.0
2018-Jul-03 02:30N 37°32' W 000°52'  

Dump ship's entire track history